Hovedside
METAR-TAF:

METAR-TAF

Lufthavner :

Harbin Taiping internasjonale lufthavn

Harbin, Kina

breddegrad: 45-45N, lengdegrad: 126-46E, høyde over havet: 143 m

Gjeldene værobservasjon

Denne rapporten ble laget for 51 minutter siden, klokken 15:00 UTC
Vind 2 kt fra Øst-sørøst
Temperatur -18°C
Luftfuktighet 92%
Trykk 1028 hPa
Sikt: 8000 m

METAR: ZYHB 201500Z 12001MPS 8000 NSC M18/M19 Q1028 NOSIG

Tid: 23:51 (15:51 UTC)

Varsel

Denne rapporten ble laget for 6 timer og 48 minutter siden, klokken 09:03 UTC
Varsel gyldig fra 20. klokken 12 UTC til 21. klokken 12 UTC
Vind 6 kt fra Sør
Sikt: 6000 m
Spredte skyer i en høyde av 3300 ft

TAF: ZYHB 200903Z 2012/2112 19003MPS 6000 SCT033 TXM04/06Z TNM16/22Z

Værobservasjoner og værvarsel for over 4000 flyplasser (METAR- og TAF-rapporter).

Tilgjengelige stasjoner er representert av de røde og gule prikkene på kartet.

Hold musepekeren over prikken for å se navnet på stasjonen.

Klikk så for å se værobservasjoner og -varsler.

For å forandre kartet kan du klikke på den grønne knappen med svart kryss for å zoome inn, på den grønne knappen med strek for å zoome ut, eller på de grønne pilene for å se tilstøtende kart.


METAR-TAF: